Ryuhomaru — JD2639 — position and weather

sailwx.info

Track history (hours):
 
Tides and Currents Weather Stations Pressure Air Temp Water Temp Dewpoint Dewpoint Depression Visibility Wind Speed Wind Dir Waves Ship Positions

Ryuhomaru

Last reported at 2018-Apr-21 10:47 UTC. Time now 2018-Apr-22 06:50 UTC.
Position N 34°33' E 135°27'.

Length 42 m; draft 3.5 m.

Type: Tug. MMSI: 431000586.

Date/timePositionNaut miles runAvg speedWind from/ knotsBaromVisibWave heightAir tempDewpointWater temp
2018-Apr-21 10:47N 34°33' E 135°27'0 0.0
2018-Apr-21 10:30N 34°33' E 135°27'3 6.8
2018-Apr-21 10:00N 34°31' E 135°24'4 8.1
2018-Apr-21 09:30N 34°31' E 135°19'815.1
2018-Apr-21 09:00N 34°27' E 135°11'714.8
2018-Apr-21 08:30N 34°22' E 135°04'713.9
2018-Apr-21 08:00N 34°16' E 134°59'3 6.4
2018-Apr-21 07:30N 34°20' E 134°59'612.7
2018-Apr-21 07:00N 34°25' E 135°04'815.5
2018-Apr-21 06:30N 34°29' E 135°12'713.5
2018-Apr-21 06:00N 34°33' E 135°18'5 9.2
2018-Apr-21 05:30N 34°33' E 135°24'1 1.3
2018-Apr-21 05:00N 34°34' E 135°24'0 0.3
2018-Apr-21 04:30N 34°34' E 135°24'0 0.3
2018-Apr-21 04:01N 34°34' E 135°24'0 0.1
2018-Apr-21 03:30N 34°34' E 135°24'0 0.1
2018-Apr-21 03:00N 34°34' E 135°24'0 0.2
2018-Apr-21 02:30N 34°34' E 135°24'0 0.3
2018-Apr-21 02:01N 34°34' E 135°24'0 0.4
2018-Apr-21 01:30N 34°34' E 135°24'0 0.0
2018-Apr-21 01:00N 34°34' E 135°24'0 0.0
2018-Apr-21 00:30N 34°34' E 135°24'0 0.1
2018-Apr-21 00:00N 34°34' E 135°24'0 0.1
2018-Apr-20 23:30N 34°34' E 135°24'0 0.0
2018-Apr-20 23:01N 34°34' E 135°24'0 0.1
2018-Apr-20 22:30N 34°34' E 135°24'0 0.2
2018-Apr-20 21:58N 34°34' E 135°24'0 0.3
2018-Apr-20 21:30N 34°34' E 135°24'0 0.1
2018-Apr-20 21:00N 34°34' E 135°24'0 0.2
2018-Apr-20 20:31N 34°34' E 135°24'0 0.1
2018-Apr-20 20:00N 34°34' E 135°24'0 0.0
2018-Apr-20 19:30N 34°34' E 135°24'0 0.2
2018-Apr-20 19:00N 34°34' E 135°24'0 0.1
2018-Apr-20 18:30N 34°34' E 135°24'0 0.1
2018-Apr-20 18:00N 34°34' E 135°24'0 0.2
2018-Apr-20 17:30N 34°34' E 135°24'0 0.1
2018-Apr-20 17:00N 34°34' E 135°24'0 0.1
2018-Apr-20 16:31N 34°34' E 135°24'0 0.1
2018-Apr-20 16:00N 34°34' E 135°24'0 0.1
2018-Apr-20 15:30N 34°34' E 135°24'0 0.0
2018-Apr-20 15:00N 34°34' E 135°24'0 0.0
2018-Apr-20 14:30N 34°34' E 135°24'0 0.0
2018-Apr-20 14:00N 34°34' E 135°24'0 0.2
2018-Apr-20 13:30N 34°34' E 135°24'0 0.2
2018-Apr-20 13:00N 34°34' E 135°24'0 0.1
2018-Apr-20 12:30N 34°34' E 135°24'0 0.1
2018-Apr-20 12:00N 34°34' E 135°24'0 0.2
2018-Apr-20 11:31N 34°34' E 135°24'0 0.1
2018-Apr-20 11:00N 34°34' E 135°24'0 0.0
2018-Apr-20 10:30N 34°34' E 135°24'0 0.2
2018-Apr-20 10:00N 34°34' E 135°24'0 0.1
2018-Apr-20 09:30N 34°34' E 135°24'0 0.0
2018-Apr-20 09:00N 34°34' E 135°24'0 0.1
2018-Apr-20 08:30N 34°34' E 135°24'0 0.0
2018-Apr-20 08:00N 34°34' E 135°24'0 0.2
2018-Apr-20 07:30N 34°34' E 135°24'0 0.1
2018-Apr-20 07:01N 34°34' E 135°24'0 0.0
2018-Apr-20 06:30N 34°34' E 135°24'0 0.0
2018-Apr-20 06:01N 34°34' E 135°24'0 0.0
2018-Apr-20 05:30N 34°34' E 135°24'0 0.1
2018-Apr-20 05:00N 34°34' E 135°24'0 0.1
2018-Apr-20 04:30N 34°34' E 135°24'0 0.1
2018-Apr-20 04:00N 34°34' E 135°24'0 0.2
2018-Apr-20 03:30N 34°34' E 135°24'0 0.1
2018-Apr-20 03:00N 34°34' E 135°24'0 0.0
2018-Apr-20 02:30N 34°34' E 135°24'0 0.1
2018-Apr-20 02:00N 34°34' E 135°24'0 0.2
2018-Apr-20 01:31N 34°34' E 135°24'0 0.3
2018-Apr-20 01:01N 34°34' E 135°24'0 0.0
2018-Apr-20 00:30N 34°34' E 135°24'0 0.1
2018-Apr-20 00:00N 34°34' E 135°24'1 1.9
2018-Apr-19 23:31N 34°33' E 135°23'3 5.9
2018-Apr-19 23:01N 34°33' E 135°20'5 9.3
2018-Apr-19 22:30N 34°31' E 135°15'5 9.9
2018-Apr-19 22:00N 34°27' E 135°10'712.6
2018-Apr-19 21:29N 34°23' E 135°05'612.8
2018-Apr-19 21:00N 34°18' E 135°00'611.6
2018-Apr-19 20:30N 34°12' E 135°00'1 2.0
2018-Apr-19 20:00N 34°12' E 135°01'612.3
2018-Apr-19 19:30N 34°17' E 134°59'815.2
2018-Apr-19 19:00N 34°23' E 135°06'815.4
2018-Apr-19 18:30N 34°28' E 135°12'815.2
2018-Apr-19 18:00N 34°32' E 135°20'510.7
2018-Apr-19 17:30N 34°33' E 135°27'0 0.0
2018-Apr-18 16:18N 34°33' E 135°27'1 4.0
2018-Apr-18 16:01N 34°33' E 135°25'1 2.2
2018-Apr-18 15:30N 34°33' E 135°26'0 0.6
2018-Apr-18 15:00N 34°33' E 135°27'0 0.0
2018-Apr-18 14:31N 34°33' E 135°27'0 0.0
2018-Apr-18 14:01N 34°33' E 135°27'0 0.0
2018-Apr-18 13:30N 34°33' E 135°27'0 0.0
2018-Apr-18 13:01N 34°33' E 135°27'0 0.0
2018-Apr-18 12:31N 34°33' E 135°27'0 0.0
2018-Apr-18 12:01N 34°33' E 135°27'0 0.0
2018-Apr-18 11:30N 34°33' E 135°27'0 0.0
2018-Apr-18 11:01N 34°33' E 135°27'0 0.0
2018-Apr-18 10:31N 34°33' E 135°27'0 0.0
2018-Apr-18 10:00N 34°33' E 135°27'0 0.0
2018-Apr-18 09:31N 34°33' E 135°27'0 0.0
2018-Apr-18 09:00N 34°33' E 135°27'0 0.0
2018-Apr-18 08:31N 34°33' E 135°27'0 0.0
2018-Apr-18 08:01N 34°33' E 135°27'0 0.0
2018-Apr-18 07:31N 34°33' E 135°27'0 0.0
2018-Apr-18 07:01N 34°33' E 135°27'0 0.0
2018-Apr-18 06:31N 34°33' E 135°27'0 0.0
2018-Apr-18 06:01N 34°33' E 135°27'0 0.0
2018-Apr-18 05:31N 34°33' E 135°27'0 0.0
2018-Apr-18 05:01N 34°33' E 135°27'0 0.0
2018-Apr-18 04:31N 34°33' E 135°27'0 0.0
2018-Apr-18 04:01N 34°33' E 135°27'0 0.0
2018-Apr-18 03:31N 34°33' E 135°27'0 0.0
2018-Apr-18 03:01N 34°33' E 135°27'0 0.0
2018-Apr-18 02:31N 34°33' E 135°27'0 0.3
2018-Apr-18 02:00N 34°33' E 135°27'0 0.7
2018-Apr-18 01:31N 34°33' E 135°26'0 0.1
2018-Apr-18 01:01N 34°33' E 135°26'0 1.0
2018-Apr-18 00:31N 34°33' E 135°27'0 0.0
2018-Apr-18 00:00N 34°33' E 135°27'0 0.0
2018-Apr-17 23:31N 34°33' E 135°27'0 0.0
2018-Apr-17 23:00N 34°33' E 135°27'0 0.0
2018-Apr-17 08:49N 34°33' E 135°27'1 2.1
2018-Apr-17 08:30N 34°33' E 135°26'0 0.1
2018-Apr-17 08:00N 34°33' E 135°26'0 0.1
2018-Apr-17 07:30N 34°33' E 135°26'1 1.4
2018-Apr-17 07:00N 34°33' E 135°25'3 6.2
2018-Apr-17 06:30N 34°33' E 135°21'1 1.3
2018-Apr-17 06:00N 34°34' E 135°20'4 8.1
2018-Apr-17 05:30N 34°33' E 135°25'1 2.1
2018-Apr-17 05:00N 34°33' E 135°27'0 0.0
2018-Apr-17 04:30N 34°33' E 135°27'0 0.0
2018-Apr-17 04:00N 34°33' E 135°27'0 0.0
2018-Apr-17 03:30N 34°33' E 135°27'0 0.0
2018-Apr-17 03:00N 34°33' E 135°27'0 0.0
2018-Apr-17 02:30N 34°33' E 135°27'0 0.0
2018-Apr-17 02:00N 34°33' E 135°27'0 0.0
2018-Apr-17 01:30N 34°33' E 135°27'0 0.0
2018-Apr-17 01:00N 34°33' E 135°27'0 0.0
2018-Apr-17 00:30N 34°33' E 135°27'0 0.0
2018-Apr-17 00:00N 34°33' E 135°27'0 0.0
2018-Apr-16 23:30N 34°33' E 135°27'0 0.0
2018-Apr-16 23:00N 34°33' E 135°27'0 0.0
2018-Apr-15 05:12N 34°33' E 135°27'1 4.9
2018-Apr-15 05:01N 34°33' E 135°26'510.9
2018-Apr-15 04:30N 34°39' E 135°24'0 0.2
2018-Apr-15 04:00N 34°39' E 135°24'3 6.8
2018-Apr-15 03:31N 34°36' E 135°23'4 7.1
2018-Apr-15 03:00N 34°33' E 135°27'0 0.1
2018-Apr-15 02:31N 34°33' E 135°27'0 0.0
2018-Apr-15 02:00N 34°33' E 135°27'0 0.0
2018-Apr-15 01:30N 34°33' E 135°27'0 0.0
2018-Apr-15 01:01N 34°33' E 135°27'0 0.0
2018-Apr-15 00:30N 34°33' E 135°27'0 0.0
2018-Apr-15 00:00N 34°33' E 135°27'0 0.0
2018-Apr-14 23:30N 34°33' E 135°27'0 0.0
2018-Apr-14 09:01N 34°33' E 135°27'0 0.0
2018-Apr-14 09:00N 34°33' E 135°27'0 0.9
2018-Apr-14 08:30N 34°33' E 135°26'0 0.0
2018-Apr-14 08:00N 34°33' E 135°26'0 0.1
2018-Apr-14 07:30N 34°33' E 135°26'1 2.3
2018-Apr-14 07:00N 34°33' E 135°25'3 6.7
2018-Apr-14 06:30N 34°33' E 135°21'2 3.6
2018-Apr-14 06:00N 34°34' E 135°18'3 5.7
2018-Apr-14 05:30N 34°35' E 135°22'2 4.1
2018-Apr-14 05:00N 34°36' E 135°24'0 0.0
2018-Apr-14 04:30N 34°36' E 135°24'0 0.0
2018-Apr-14 04:00N 34°36' E 135°24'0 0.0
2018-Apr-14 03:30N 34°36' E 135°24'0 0.0
2018-Apr-14 03:00N 34°36' E 135°24'0 0.0
2018-Apr-14 02:30N 34°36' E 135°24'0 0.0
2018-Apr-14 02:00N 34°36' E 135°24'3 5.2
2018-Apr-14 01:30N 34°33' E 135°24'0 0.6
2018-Apr-14 00:59N 34°33' E 135°24'0 0.3
2018-Apr-14 00:30N 34°33' E 135°24'2 3.8
2018-Apr-14 00:01N 34°33' E 135°26'0 0.8
2018-Apr-13 23:30N 34°33' E 135°27'0 0.0
2018-Apr-13 23:00N 34°33' E 135°27'0 0.0
2018-Apr-13 09:34N 34°33' E 135°27'0 0.1
2018-Apr-13 09:30N 34°33' E 135°27'3 6.1
2018-Apr-13 09:00N 34°35' E 135°24'2 3.1
2018-Apr-13 08:30N 34°37' E 135°25'1 1.8
2018-Apr-13 08:00N 34°36' E 135°24'0 0.0
2018-Apr-13 07:31N 34°36' E 135°24'0 0.0
2018-Apr-13 07:00N 34°36' E 135°24'0 0.0
2018-Apr-13 06:30N 34°36' E 135°24'0 0.0
2018-Apr-13 06:00N 34°36' E 135°24'0 0.0
2018-Apr-13 05:30N 34°36' E 135°24'0 0.0
2018-Apr-13 05:00N 34°36' E 135°24'0 0.0
2018-Apr-13 04:30N 34°36' E 135°24'0 0.0
2018-Apr-13 04:01N 34°36' E 135°24'0 0.0
2018-Apr-13 03:31N 34°36' E 135°24'0 0.0
2018-Apr-13 03:00N 34°36' E 135°24'1 2.2
2018-Apr-13 02:30N 34°35' E 135°24'2 3.8
2018-Apr-13 02:00N 34°33' E 135°24'0 0.1
2018-Apr-13 01:30N 34°33' E 135°24'1 1.3
2018-Apr-13 01:00N 34°33' E 135°23'2 4.0
2018-Apr-13 00:31N 34°33' E 135°21'1 1.5
2018-Apr-13 00:00N 34°33' E 135°20'510.2
2018-Apr-12 23:30N 34°33' E 135°26'0 0.7
2018-Apr-12 23:00N 34°33' E 135°27'0 0.0
2018-Apr-12 22:30N 34°33' E 135°27'0 0.0
2018-Apr-12 22:00N 34°33' E 135°27'0 0.0
2018-Apr-12 04:38N 34°33' E 135°27'0 0.0
2018-Apr-12 04:30N 34°33' E 135°27'510.7
2018-Apr-12 04:00N 34°34' E 135°20'4 8.3
2018-Apr-12 03:30N 34°33' E 135°25'0 0.7
2018-Apr-12 03:01N 34°33' E 135°25'0 0.2
2018-Apr-12 02:30N 34°33' E 135°25'0 0.4
2018-Apr-12 02:01N 34°33' E 135°25'0 0.2
2018-Apr-12 01:30N 34°33' E 135°25'0 0.1
2018-Apr-12 01:00N 34°33' E 135°25'0 0.2
2018-Apr-12 00:31N 34°33' E 135°25'0 0.1
2018-Apr-12 00:01N 34°33' E 135°25'0 0.1
2018-Apr-11 23:30N 34°33' E 135°25'0 0.2
2018-Apr-11 23:01N 34°33' E 135°25'0 0.1
2018-Apr-11 22:31N 34°33' E 135°25'0 0.0
2018-Apr-11 22:00N 34°33' E 135°25'0 0.0
2018-Apr-11 21:30N 34°33' E 135°25'0 0.1
2018-Apr-11 21:00N 34°33' E 135°25'0 0.1
2018-Apr-11 20:31N 34°33' E 135°25'0 0.1
2018-Apr-11 20:00N 34°33' E 135°25'0 0.2
2018-Apr-11 19:28N 34°33' E 135°25'0 0.2
2018-Apr-11 19:01N 34°33' E 135°25'0 0.1
2018-Apr-11 18:30N 34°33' E 135°25'0 0.0
2018-Apr-11 18:01N 34°33' E 135°25'0 0.1
2018-Apr-11 17:30N 34°33' E 135°25'0 0.1
2018-Apr-11 17:00N 34°33' E 135°25'0 0.1
2018-Apr-11 16:31N 34°33' E 135°25'0 0.1
2018-Apr-11 16:01N 34°33' E 135°25'0 0.1
2018-Apr-11 15:31N 34°33' E 135°25'0 0.1
2018-Apr-11 15:01N 34°33' E 135°25'0 0.1
2018-Apr-11 14:30N 34°33' E 135°25'0 0.1
2018-Apr-11 14:00N 34°33' E 135°25'0 0.1
2018-Apr-11 13:30N 34°33' E 135°25'0 0.3
2018-Apr-11 13:00N 34°33' E 135°25'0 0.3
2018-Apr-11 12:30N 34°33' E 135°25'0 0.2
2018-Apr-11 12:01N 34°33' E 135°25'0 0.1
2018-Apr-11 11:31N 34°33' E 135°25'0 0.1
2018-Apr-11 11:01N 34°33' E 135°25'  
Track history (hours):
 
Tides and Currents Weather Stations Pressure Air Temp Water Temp Dewpoint Dewpoint Depression Visibility Wind Speed Wind Dir Waves Ship Positions

Ryuhomaru

Last reported at 2018-Apr-21 10:47 UTC. Time now 2018-Apr-22 06:50 UTC.
Position N 34°33' E 135°27'.

Length 42 m; draft 3.5 m.

Type: Tug. MMSI: 431000586.

Date/timePositionNaut miles runAvg speedWind from/ knotsBaromVisibWave heightAir tempDewpointWater temp
2018-Apr-21 10:47N 34°33' E 135°27'0 0.0
2018-Apr-21 10:30N 34°33' E 135°27'3 6.8
2018-Apr-21 10:00N 34°31' E 135°24'4 8.1
2018-Apr-21 09:30N 34°31' E 135°19'815.1
2018-Apr-21 09:00N 34°27' E 135°11'714.8
2018-Apr-21 08:30N 34°22' E 135°04'713.9
2018-Apr-21 08:00N 34°16' E 134°59'3 6.4
2018-Apr-21 07:30N 34°20' E 134°59'612.7
2018-Apr-21 07:00N 34°25' E 135°04'815.5
2018-Apr-21 06:30N 34°29' E 135°12'713.5
2018-Apr-21 06:00N 34°33' E 135°18'5 9.2
2018-Apr-21 05:30N 34°33' E 135°24'1 1.3
2018-Apr-21 05:00N 34°34' E 135°24'0 0.3
2018-Apr-21 04:30N 34°34' E 135°24'0 0.3
2018-Apr-21 04:01N 34°34' E 135°24'0 0.1
2018-Apr-21 03:30N 34°34' E 135°24'0 0.1
2018-Apr-21 03:00N 34°34' E 135°24'0 0.2
2018-Apr-21 02:30N 34°34' E 135°24'0 0.3
2018-Apr-21 02:01N 34°34' E 135°24'0 0.4
2018-Apr-21 01:30N 34°34' E 135°24'0 0.0
2018-Apr-21 01:00N 34°34' E 135°24'0 0.0
2018-Apr-21 00:30N 34°34' E 135°24'0 0.1
2018-Apr-21 00:00N 34°34' E 135°24'0 0.1
2018-Apr-20 23:30N 34°34' E 135°24'0 0.0
2018-Apr-20 23:01N 34°34' E 135°24'0 0.1
2018-Apr-20 22:30N 34°34' E 135°24'0 0.2
2018-Apr-20 21:58N 34°34' E 135°24'0 0.3
2018-Apr-20 21:30N 34°34' E 135°24'0 0.1
2018-Apr-20 21:00N 34°34' E 135°24'0 0.2
2018-Apr-20 20:31N 34°34' E 135°24'0 0.1
2018-Apr-20 20:00N 34°34' E 135°24'0 0.0
2018-Apr-20 19:30N 34°34' E 135°24'0 0.2
2018-Apr-20 19:00N 34°34' E 135°24'0 0.1
2018-Apr-20 18:30N 34°34' E 135°24'0 0.1
2018-Apr-20 18:00N 34°34' E 135°24'0 0.2
2018-Apr-20 17:30N 34°34' E 135°24'0 0.1
2018-Apr-20 17:00N 34°34' E 135°24'0 0.1
2018-Apr-20 16:31N 34°34' E 135°24'0 0.1
2018-Apr-20 16:00N 34°34' E 135°24'0 0.1
2018-Apr-20 15:30N 34°34' E 135°24'0 0.0
2018-Apr-20 15:00N 34°34' E 135°24'0 0.0
2018-Apr-20 14:30N 34°34' E 135°24'0 0.0
2018-Apr-20 14:00N 34°34' E 135°24'0 0.2
2018-Apr-20 13:30N 34°34' E 135°24'0 0.2
2018-Apr-20 13:00N 34°34' E 135°24'0 0.1
2018-Apr-20 12:30N 34°34' E 135°24'0 0.1
2018-Apr-20 12:00N 34°34' E 135°24'0 0.2
2018-Apr-20 11:31N 34°34' E 135°24'0 0.1
2018-Apr-20 11:00N 34°34' E 135°24'0 0.0
2018-Apr-20 10:30N 34°34' E 135°24'0 0.2
2018-Apr-20 10:00N 34°34' E 135°24'0 0.1
2018-Apr-20 09:30N 34°34' E 135°24'0 0.0
2018-Apr-20 09:00N 34°34' E 135°24'0 0.1
2018-Apr-20 08:30N 34°34' E 135°24'0 0.0
2018-Apr-20 08:00N 34°34' E 135°24'0 0.2
2018-Apr-20 07:30N 34°34' E 135°24'0 0.1
2018-Apr-20 07:01N 34°34' E 135°24'0 0.0
2018-Apr-20 06:30N 34°34' E 135°24'0 0.0
2018-Apr-20 06:01N 34°34' E 135°24'0 0.0
2018-Apr-20 05:30N 34°34' E 135°24'0 0.1
2018-Apr-20 05:00N 34°34' E 135°24'0 0.1
2018-Apr-20 04:30N 34°34' E 135°24'0 0.1
2018-Apr-20 04:00N 34°34' E 135°24'0 0.2
2018-Apr-20 03:30N 34°34' E 135°24'0 0.1
2018-Apr-20 03:00N 34°34' E 135°24'0 0.0
2018-Apr-20 02:30N 34°34' E 135°24'0 0.1
2018-Apr-20 02:00N 34°34' E 135°24'0 0.2
2018-Apr-20 01:31N 34°34' E 135°24'0 0.3
2018-Apr-20 01:01N 34°34' E 135°24'0 0.0
2018-Apr-20 00:30N 34°34' E 135°24'0 0.1
2018-Apr-20 00:00N 34°34' E 135°24'1 1.9
2018-Apr-19 23:31N 34°33' E 135°23'3 5.9
2018-Apr-19 23:01N 34°33' E 135°20'5 9.3
2018-Apr-19 22:30N 34°31' E 135°15'5 9.9
2018-Apr-19 22:00N 34°27' E 135°10'712.6
2018-Apr-19 21:29N 34°23' E 135°05'612.8
2018-Apr-19 21:00N 34°18' E 135°00'611.6
2018-Apr-19 20:30N 34°12' E 135°00'1 2.0
2018-Apr-19 20:00N 34°12' E 135°01'612.3
2018-Apr-19 19:30N 34°17' E 134°59'815.2
2018-Apr-19 19:00N 34°23' E 135°06'815.4
2018-Apr-19 18:30N 34°28' E 135°12'815.2
2018-Apr-19 18:00N 34°32' E 135°20'510.7
2018-Apr-19 17:30N 34°33' E 135°27'0 0.0
2018-Apr-18 16:18N 34°33' E 135°27'1 4.0
2018-Apr-18 16:01N 34°33' E 135°25'1 2.2
2018-Apr-18 15:30N 34°33' E 135°26'0 0.6
2018-Apr-18 15:00N 34°33' E 135°27'0 0.0
2018-Apr-18 14:31N 34°33' E 135°27'0 0.0
2018-Apr-18 14:01N 34°33' E 135°27'0 0.0
2018-Apr-18 13:30N 34°33' E 135°27'0 0.0
2018-Apr-18 13:01N 34°33' E 135°27'0 0.0
2018-Apr-18 12:31N 34°33' E 135°27'0 0.0
2018-Apr-18 12:01N 34°33' E 135°27'0 0.0
2018-Apr-18 11:30N 34°33' E 135°27'0 0.0
2018-Apr-18 11:01N 34°33' E 135°27'0 0.0
2018-Apr-18 10:31N 34°33' E 135°27'0 0.0
2018-Apr-18 10:00N 34°33' E 135°27'0 0.0
2018-Apr-18 09:31N 34°33' E 135°27'0 0.0
2018-Apr-18 09:00N 34°33' E 135°27'0 0.0
2018-Apr-18 08:31N 34°33' E 135°27'0 0.0
2018-Apr-18 08:01N 34°33' E 135°27'0 0.0
2018-Apr-18 07:31N 34°33' E 135°27'0 0.0
2018-Apr-18 07:01N 34°33' E 135°27'0 0.0
2018-Apr-18 06:31N 34°33' E 135°27'0 0.0
2018-Apr-18 06:01N 34°33' E 135°27'0 0.0
2018-Apr-18 05:31N 34°33' E 135°27'0 0.0
2018-Apr-18 05:01N 34°33' E 135°27'0 0.0
2018-Apr-18 04:31N 34°33' E 135°27'0 0.0
2018-Apr-18 04:01N 34°33' E 135°27'0 0.0
2018-Apr-18 03:31N 34°33' E 135°27'0 0.0
2018-Apr-18 03:01N 34°33' E 135°27'0 0.0
2018-Apr-18 02:31N 34°33' E 135°27'0 0.3
2018-Apr-18 02:00N 34°33' E 135°27'0 0.7
2018-Apr-18 01:31N 34°33' E 135°26'0 0.1
2018-Apr-18 01:01N 34°33' E 135°26'0 1.0
2018-Apr-18 00:31N 34°33' E 135°27'0 0.0
2018-Apr-18 00:00N 34°33' E 135°27'0 0.0
2018-Apr-17 23:31N 34°33' E 135°27'0 0.0
2018-Apr-17 23:00N 34°33' E 135°27'0 0.0
2018-Apr-17 08:49N 34°33' E 135°27'1 2.1
2018-Apr-17 08:30N 34°33' E 135°26'0 0.1
2018-Apr-17 08:00N 34°33' E 135°26'0 0.1
2018-Apr-17 07:30N 34°33' E 135°26'1 1.4
2018-Apr-17 07:00N 34°33' E 135°25'3 6.2
2018-Apr-17 06:30N 34°33' E 135°21'1 1.3
2018-Apr-17 06:00N 34°34' E 135°20'4 8.1
2018-Apr-17 05:30N 34°33' E 135°25'1 2.1
2018-Apr-17 05:00N 34°33' E 135°27'0 0.0
2018-Apr-17 04:30N 34°33' E 135°27'0 0.0
2018-Apr-17 04:00N 34°33' E 135°27'0 0.0
2018-Apr-17 03:30N 34°33' E 135°27'0 0.0
2018-Apr-17 03:00N 34°33' E 135°27'0 0.0
2018-Apr-17 02:30N 34°33' E 135°27'0 0.0
2018-Apr-17 02:00N 34°33' E 135°27'0 0.0
2018-Apr-17 01:30N 34°33' E 135°27'0 0.0
2018-Apr-17 01:00N 34°33' E 135°27'0 0.0
2018-Apr-17 00:30N 34°33' E 135°27'0 0.0
2018-Apr-17 00:00N 34°33' E 135°27'0 0.0
2018-Apr-16 23:30N 34°33' E 135°27'0 0.0
2018-Apr-16 23:00N 34°33' E 135°27'0 0.0
2018-Apr-15 05:12N 34°33' E 135°27'1 4.9
2018-Apr-15 05:01N 34°33' E 135°26'510.9
2018-Apr-15 04:30N 34°39' E 135°24'0 0.2
2018-Apr-15 04:00N 34°39' E 135°24'3 6.8
2018-Apr-15 03:31N 34°36' E 135°23'4 7.1
2018-Apr-15 03:00N 34°33' E 135°27'0 0.1
2018-Apr-15 02:31N 34°33' E 135°27'0 0.0
2018-Apr-15 02:00N 34°33' E 135°27'0 0.0
2018-Apr-15 01:30N 34°33' E 135°27'0 0.0
2018-Apr-15 01:01N 34°33' E 135°27'0 0.0
2018-Apr-15 00:30N 34°33' E 135°27'0 0.0
2018-Apr-15 00:00N 34°33' E 135°27'0 0.0
2018-Apr-14 23:30N 34°33' E 135°27'0 0.0
2018-Apr-14 09:01N 34°33' E 135°27'0 0.0
2018-Apr-14 09:00N 34°33' E 135°27'0 0.9
2018-Apr-14 08:30N 34°33' E 135°26'0 0.0
2018-Apr-14 08:00N 34°33' E 135°26'0 0.1
2018-Apr-14 07:30N 34°33' E 135°26'1 2.3
2018-Apr-14 07:00N 34°33' E 135°25'3 6.7
2018-Apr-14 06:30N 34°33' E 135°21'2 3.6
2018-Apr-14 06:00N 34°34' E 135°18'3 5.7
2018-Apr-14 05:30N 34°35' E 135°22'2 4.1
2018-Apr-14 05:00N 34°36' E 135°24'0 0.0
2018-Apr-14 04:30N 34°36' E 135°24'0 0.0
2018-Apr-14 04:00N 34°36' E 135°24'0 0.0
2018-Apr-14 03:30N 34°36' E 135°24'0 0.0
2018-Apr-14 03:00N 34°36' E 135°24'0 0.0
2018-Apr-14 02:30N 34°36' E 135°24'0 0.0
2018-Apr-14 02:00N 34°36' E 135°24'3 5.2
2018-Apr-14 01:30N 34°33' E 135°24'0 0.6
2018-Apr-14 00:59N 34°33' E 135°24'0 0.3
2018-Apr-14 00:30N 34°33' E 135°24'2 3.8
2018-Apr-14 00:01N 34°33' E 135°26'0 0.8
2018-Apr-13 23:30N 34°33' E 135°27'0 0.0
2018-Apr-13 23:00N 34°33' E 135°27'0 0.0
2018-Apr-13 09:34N 34°33' E 135°27'0 0.1
2018-Apr-13 09:30N 34°33' E 135°27'3 6.1
2018-Apr-13 09:00N 34°35' E 135°24'2 3.1
2018-Apr-13 08:30N 34°37' E 135°25'1 1.8
2018-Apr-13 08:00N 34°36' E 135°24'0 0.0
2018-Apr-13 07:31N 34°36' E 135°24'0 0.0
2018-Apr-13 07:00N 34°36' E 135°24'0 0.0
2018-Apr-13 06:30N 34°36' E 135°24'0 0.0
2018-Apr-13 06:00N 34°36' E 135°24'0 0.0
2018-Apr-13 05:30N 34°36' E 135°24'0 0.0
2018-Apr-13 05:00N 34°36' E 135°24'0 0.0
2018-Apr-13 04:30N 34°36' E 135°24'0 0.0
2018-Apr-13 04:01N 34°36' E 135°24'0 0.0
2018-Apr-13 03:31N 34°36' E 135°24'0 0.0
2018-Apr-13 03:00N 34°36' E 135°24'1 2.2
2018-Apr-13 02:30N 34°35' E 135°24'2 3.8
2018-Apr-13 02:00N 34°33' E 135°24'0 0.1
2018-Apr-13 01:30N 34°33' E 135°24'1 1.3
2018-Apr-13 01:00N 34°33' E 135°23'2 4.0
2018-Apr-13 00:31N 34°33' E 135°21'1 1.5
2018-Apr-13 00:00N 34°33' E 135°20'510.2
2018-Apr-12 23:30N 34°33' E 135°26'0 0.7
2018-Apr-12 23:00N 34°33' E 135°27'0 0.0
2018-Apr-12 22:30N 34°33' E 135°27'0 0.0
2018-Apr-12 22:00N 34°33' E 135°27'0 0.0
2018-Apr-12 04:38N 34°33' E 135°27'0 0.0
2018-Apr-12 04:30N 34°33' E 135°27'510.7
2018-Apr-12 04:00N 34°34' E 135°20'4 8.3
2018-Apr-12 03:30N 34°33' E 135°25'0 0.7
2018-Apr-12 03:01N 34°33' E 135°25'0 0.2
2018-Apr-12 02:30N 34°33' E 135°25'0 0.4
2018-Apr-12 02:01N 34°33' E 135°25'0 0.2
2018-Apr-12 01:30N 34°33' E 135°25'0 0.1
2018-Apr-12 01:00N 34°33' E 135°25'0 0.2
2018-Apr-12 00:31N 34°33' E 135°25'0 0.1
2018-Apr-12 00:01N 34°33' E 135°25'0 0.1
2018-Apr-11 23:30N 34°33' E 135°25'0 0.2
2018-Apr-11 23:01N 34°33' E 135°25'0 0.1
2018-Apr-11 22:31N 34°33' E 135°25'0 0.0
2018-Apr-11 22:00N 34°33' E 135°25'0 0.0
2018-Apr-11 21:30N 34°33' E 135°25'0 0.1
2018-Apr-11 21:00N 34°33' E 135°25'0 0.1
2018-Apr-11 20:31N 34°33' E 135°25'0 0.1
2018-Apr-11 20:00N 34°33' E 135°25'0 0.2
2018-Apr-11 19:28N 34°33' E 135°25'0 0.2
2018-Apr-11 19:01N 34°33' E 135°25'0 0.1
2018-Apr-11 18:30N 34°33' E 135°25'0 0.0
2018-Apr-11 18:01N 34°33' E 135°25'0 0.1
2018-Apr-11 17:30N 34°33' E 135°25'0 0.1
2018-Apr-11 17:00N 34°33' E 135°25'0 0.1
2018-Apr-11 16:31N 34°33' E 135°25'0 0.1
2018-Apr-11 16:01N 34°33' E 135°25'0 0.1
2018-Apr-11 15:31N 34°33' E 135°25'0 0.1
2018-Apr-11 15:01N 34°33' E 135°25'0 0.1
2018-Apr-11 14:30N 34°33' E 135°25'0 0.1
2018-Apr-11 14:00N 34°33' E 135°25'0 0.1
2018-Apr-11 13:30N 34°33' E 135°25'0 0.3
2018-Apr-11 13:00N 34°33' E 135°25'0 0.3
2018-Apr-11 12:30N 34°33' E 135°25'0 0.2
2018-Apr-11 12:01N 34°33' E 135°25'0 0.1
2018-Apr-11 11:31N 34°33' E 135°25'0 0.1
2018-Apr-11 11:01N 34°33' E 135°25'  

Dump ship's entire track history